createdAt,value
2018-07-04T00:02:37.202Z,2.10
2018-07-04T00:05:17.551Z,2.12
2018-07-04T00:07:57.234Z,2.22
2018-07-04T00:10:37.641Z,1.87
2018-07-04T00:13:17.255Z,1.40
2018-07-04T00:15:57.266Z,2.02
2018-07-04T00:18:36.889Z,2.60
2018-07-04T00:21:17.529Z,1.62
2018-07-04T00:23:57.003Z,2.40
2018-07-04T00:26:36.950Z,1.60
2018-07-04T00:29:16.632Z,3.40
2018-07-04T00:31:56.751Z,1.65
2018-07-04T00:34:36.481Z,1.25
2018-07-04T00:37:16.471Z,1.80
2018-07-04T00:39:56.153Z,1.47
2018-07-04T00:42:35.872Z,1.12
2018-07-04T00:45:15.553Z,2.62
2018-07-04T00:47:55.088Z,0.98
2018-07-04T00:50:34.899Z,1.67
2018-07-04T00:53:15.126Z,2.40
2018-07-04T00:55:54.609Z,1.17
2018-07-04T00:58:28.480Z,1.27
2018-07-04T01:01:08.223Z,1.15
2018-07-04T01:03:48.145Z,1.05
2018-07-04T01:06:28.129Z,1.25
2018-07-04T01:09:09.498Z,1.32
2018-07-04T01:11:49.318Z,0.90
2018-07-04T01:14:29.194Z,0.95
2018-07-04T01:17:08.777Z,1.05
2018-07-04T01:19:48.491Z,1.72
2018-07-04T01:22:28.165Z,1.60
2018-07-04T01:25:08.086Z,1.20
2018-07-04T01:27:47.791Z,1.52
2018-07-04T01:30:27.866Z,1.02
2018-07-04T01:33:07.469Z,1.42
2018-07-04T01:35:47.477Z,1.80
2018-07-04T01:38:26.946Z,0.82
2018-07-04T01:41:06.865Z,1.05
2018-07-04T01:43:46.558Z,0.88
2018-07-04T01:46:26.563Z,0.75
2018-07-04T01:49:06.034Z,1.57
2018-07-04T01:51:39.884Z,1.05
2018-07-04T01:55:48.731Z,1.10
2018-07-04T01:58:29.105Z,1.30
2018-07-04T02:01:08.670Z,1.27
2018-07-04T02:03:48.493Z,0.80
2018-07-04T02:06:28.304Z,1.30
2018-07-04T02:09:08.893Z,2.20
2018-07-04T02:11:49.917Z,1.92
2018-07-04T02:14:29.698Z,1.17
2018-07-04T02:17:09.414Z,1.00
2018-07-04T02:19:49.142Z,1.92
2018-07-04T02:22:28.831Z,0.75
2018-07-04T02:25:09.015Z,1.40
2018-07-04T02:27:48.582Z,0.80
2018-07-04T02:30:28.624Z,1.05
2018-07-04T02:33:08.421Z,1.20
2018-07-04T02:35:48.254Z,0.95
2018-07-04T02:38:27.902Z,1.52
2018-07-04T02:41:08.290Z,0.93
2018-07-04T02:43:47.766Z,1.15
2018-07-04T02:46:33.134Z,1.35
2018-07-04T02:49:12.859Z,1.17
2018-07-04T02:51:52.719Z,1.32
2018-07-04T02:54:32.199Z,1.00
2018-07-04T02:57:12.117Z,0.70
2018-07-04T02:59:51.691Z,1.37
2018-07-04T03:02:31.499Z,1.10
2018-07-04T03:05:11.015Z,1.00
2018-07-04T03:07:52.239Z,0.93
2018-07-04T03:10:32.139Z,0.70
2018-07-04T03:13:12.050Z,1.10
2018-07-04T03:15:51.582Z,0.70
2018-07-04T03:18:31.343Z,1.07
2018-07-04T03:21:11.004Z,0.98
2018-07-04T03:23:51.410Z,0.75
2018-07-04T03:26:31.020Z,0.70
2018-07-04T03:29:10.721Z,1.15
2018-07-04T03:31:50.387Z,0.80
2018-07-04T03:34:29.974Z,0.65
2018-07-04T03:37:09.662Z,0.80
2018-07-04T03:39:49.893Z,0.72
2018-07-04T03:42:29.570Z,1.25
2018-07-04T03:45:09.482Z,0.65
2018-07-04T03:47:49.011Z,0.93
2018-07-04T03:50:28.887Z,0.72
2018-07-04T03:53:08.659Z,1.10
2018-07-04T03:55:49.075Z,0.53
2018-07-04T03:58:28.662Z,0.62
2018-07-04T04:01:08.598Z,0.60
2018-07-04T04:03:48.266Z,0.80
2018-07-04T04:06:28.015Z,0.50
2018-07-04T04:09:09.351Z,1.17
2018-07-04T04:11:49.298Z,1.55
2018-07-04T04:14:28.785Z,5.87
2018-07-04T04:17:08.742Z,2.37
2018-07-04T04:19:48.631Z,4.70
2018-07-04T04:22:28.202Z,4.12
2018-07-04T04:25:07.887Z,1.40
2018-07-04T04:27:48.169Z,3.40
2018-07-04T04:30:27.664Z,3.40
2018-07-04T04:33:07.386Z,2.47
2018-07-04T04:35:46.958Z,2.87
2018-07-04T04:38:26.850Z,2.98
2018-07-04T04:41:06.431Z,3.12
2018-07-04T04:43:46.964Z,2.92
2018-07-04T04:46:26.570Z,3.85
2018-07-04T04:49:06.456Z,5.92
2018-07-04T04:51:46.182Z,2.30
2018-07-04T04:54:26.461Z,3.98
2018-07-04T04:57:06.126Z,3.42
2018-07-04T04:59:40.257Z,2.83
2018-07-04T05:02:19.855Z,2.62
2018-07-04T05:04:59.659Z,1.82
2018-07-04T05:07:40.774Z,1.07
2018-07-04T05:10:20.698Z,2.75
2018-07-04T05:13:00.363Z,1.00
2018-07-04T05:15:40.128Z,4.03
2018-07-04T05:18:19.782Z,1.75
2018-07-04T05:20:59.520Z,1.35
2018-07-04T05:23:39.251Z,1.57
2018-07-04T05:26:19.630Z,3.72
2018-07-04T05:28:59.107Z,2.52
2018-07-04T05:31:38.841Z,1.95
2018-07-04T05:34:18.420Z,5.42
2018-07-04T05:36:58.306Z,3.05
2018-07-04T05:39:37.881Z,3.95
2018-07-04T05:42:19.134Z,1.62
2018-07-04T05:44:58.893Z,3.58
2018-07-04T05:47:38.708Z,5.08
2018-07-04T05:50:18.190Z,3.72
2018-07-04T05:52:52.223Z,3.00
2018-07-04T05:55:31.789Z,2.33
2018-07-04T05:58:12.153Z,5.40
2018-07-04T06:00:51.657Z,2.72
2018-07-04T06:03:31.460Z,5.55
2018-07-04T06:06:11.075Z,14.60
2018-07-04T06:08:50.767Z,7.97
2018-07-04T06:11:31.053Z,15.08
2018-07-04T06:14:11.771Z,13.48
2018-07-04T06:16:51.177Z,7.60
2018-07-04T06:19:31.121Z,13.90
2018-07-04T06:22:10.863Z,12.03
2018-07-04T06:24:51.670Z,19.37
2018-07-04T06:27:31.377Z,10.20
2018-07-04T06:30:12.802Z,12.25
2018-07-04T06:32:52.337Z,14.87
2018-07-04T06:35:32.084Z,13.90
2018-07-04T06:37:59.306Z,14.85
2018-07-04T06:40:26.509Z,9.95
2018-07-04T06:42:53.798Z,10.10
2018-07-04T06:45:21.001Z,8.45
2018-07-04T06:47:48.218Z,8.25
2018-07-04T06:50:16.002Z,8.83
2018-07-04T06:52:43.197Z,6.42
2018-07-04T06:55:10.425Z,7.83
2018-07-04T06:57:37.866Z,6.95
2018-07-04T07:00:05.074Z,5.20
2018-07-04T07:02:32.304Z,5.78
2018-07-04T07:05:12.015Z,7.03
2018-07-04T07:07:51.602Z,6.12
2018-07-04T07:10:31.605Z,6.58
2018-07-04T07:13:11.619Z,5.00
2018-07-04T07:15:51.379Z,9.03
2018-07-04T07:18:31.067Z,13.78
2018-07-04T07:21:11.217Z,7.28
2018-07-04T07:23:50.953Z,12.55
2018-07-04T07:26:31.422Z,8.73
2018-07-04T07:29:11.015Z,8.48
2018-07-04T07:31:50.862Z,5.90
2018-07-04T07:34:30.445Z,11.28
2018-07-04T07:37:10.502Z,5.50
2018-07-04T07:39:50.066Z,6.58
2018-07-04T07:42:30.106Z,6.85
2018-07-04T07:45:09.940Z,13.62
2018-07-04T07:47:49.610Z,9.65
2018-07-04T07:50:29.404Z,8.40
2018-07-04T07:53:08.946Z,7.72
2018-07-04T07:55:48.666Z,6.45
2018-07-04T07:58:28.986Z,6.55
2018-07-04T08:01:08.800Z,9.20
2018-07-04T08:03:48.487Z,6.42
2018-07-04T08:06:28.185Z,7.80
2018-07-04T08:09:07.943Z,4.50
2018-07-04T08:11:48.090Z,9.40
2018-07-04T08:14:29.293Z,8.98
2018-07-04T08:17:08.897Z,7.72
2018-07-04T08:19:48.998Z,6.62
2018-07-04T08:22:28.696Z,6.40
2018-07-04T08:25:08.530Z,7.05
2018-07-04T08:27:48.163Z,6.00
2018-07-04T08:30:28.290Z,8.23
2018-07-04T08:33:07.919Z,5.05
2018-07-04T08:35:47.702Z,16.65
2018-07-04T08:38:27.395Z,8.50
2018-07-04T08:41:07.306Z,9.80
2018-07-04T08:43:46.845Z,7.92
2018-07-04T08:46:27.789Z,9.13
2018-07-04T08:49:07.543Z,7.95
2018-07-04T08:51:47.748Z,5.92
2018-07-04T08:54:27.719Z,10.28
2018-07-04T08:57:07.342Z,5.37
2018-07-04T08:59:47.173Z,6.12
2018-07-04T09:02:27.589Z,8.38
2018-07-04T09:05:07.251Z,8.23
2018-07-04T09:07:48.993Z,8.20
2018-07-04T09:10:28.716Z,11.38
2018-07-04T09:13:08.374Z,8.13
2018-07-04T09:15:49.111Z,7.80
2018-07-04T09:18:28.954Z,6.87
2018-07-04T09:21:08.498Z,8.43
2018-07-04T09:23:48.726Z,11.57
2018-07-04T09:26:28.361Z,6.58
2018-07-04T09:29:08.242Z,6.97
2018-07-04T09:31:47.813Z,6.10
2018-07-04T09:34:27.582Z,9.13
2018-07-04T09:37:07.249Z,11.35
2018-07-04T09:39:47.826Z,12.98
2018-07-04T09:42:27.414Z,10.70
2018-07-04T09:45:07.099Z,7.70
2018-07-04T09:47:46.780Z,17.73
2018-07-04T09:50:26.538Z,16.65
2018-07-04T09:53:06.250Z,14.47
2018-07-04T09:55:47.018Z,24.72
2018-07-04T09:58:26.512Z,29.60
2018-07-04T10:01:11.845Z,26.33
2018-07-04T10:03:51.302Z,40.55
2018-07-04T10:06:31.086Z,55.60
2018-07-04T10:09:10.617Z,31.70
2018-07-04T10:11:51.204Z,35.70
2018-07-04T10:14:30.722Z,29.25
2018-07-04T10:17:12.171Z,29.57
2018-07-04T10:19:51.747Z,26.35
2018-07-04T10:22:31.938Z,23.25
2018-07-04T10:25:11.608Z,34.03
2018-07-04T10:27:52.791Z,24.15
2018-07-04T10:30:32.381Z,26.15
2018-07-04T10:33:11.899Z,20.10
2018-07-04T10:35:51.574Z,18.40
2018-07-04T10:38:33.397Z,24.67
2018-07-04T10:41:12.915Z,18.02
2018-07-04T10:43:54.110Z,15.55
2018-07-04T10:46:33.698Z,18.23
2018-07-04T10:49:15.658Z,16.37
2018-07-04T10:51:55.196Z,19.20
2018-07-04T10:54:35.867Z,17.17
2018-07-04T10:57:15.488Z,18.65
2018-07-04T10:59:55.230Z,15.45
2018-07-04T11:02:35.524Z,13.38
2018-07-04T11:05:15.572Z,14.60
2018-07-04T11:07:56.440Z,11.68
2018-07-04T11:10:36.394Z,13.50
2018-07-04T11:13:15.966Z,15.90
2018-07-04T11:15:55.743Z,18.45
2018-07-04T11:18:35.726Z,13.90
2018-07-04T11:21:15.682Z,11.08
2018-07-04T11:23:55.373Z,14.05
2018-07-04T11:26:37.230Z,11.73
2018-07-04T11:29:16.886Z,13.93
2018-07-04T11:31:56.507Z,14.95
2018-07-04T11:34:36.060Z,13.15
2018-07-04T11:37:15.818Z,14.80
2018-07-04T11:39:55.543Z,27.27
2018-07-04T11:42:36.098Z,10.00
2018-07-04T11:45:15.810Z,14.10
2018-07-04T11:47:43.451Z,11.70
2018-07-04T11:50:10.798Z,11.03
2018-07-04T11:52:38.018Z,11.85
2018-07-04T11:55:05.291Z,15.45
2018-07-04T11:57:32.506Z,11.60
2018-07-04T11:59:59.729Z,11.35
2018-07-04T12:02:27.266Z,19.15
2018-07-04T12:05:06.931Z,13.68
2018-07-04T12:07:36.383Z,20.70
2018-07-04T12:10:03.919Z,16.90
2018-07-04T12:12:31.130Z,16.45
2018-07-04T12:14:58.400Z,17.65
2018-07-04T12:17:25.595Z,22.85
2018-07-04T12:19:52.814Z,12.88
2018-07-04T12:22:23.890Z,17.80
2018-07-04T12:24:51.121Z,18.00
2018-07-04T12:27:18.331Z,22.60
2018-07-04T12:29:45.614Z,14.70
2018-07-04T12:32:12.845Z,14.05
2018-07-04T12:34:40.068Z,15.05
2018-07-04T12:37:07.325Z,19.73
2018-07-04T12:39:34.541Z,12.03
2018-07-04T12:42:01.766Z,28.57
2018-07-04T12:44:29.578Z,21.82
2018-07-04T12:46:56.823Z,20.20
2018-07-04T12:49:28.065Z,23.07
2018-07-04T12:51:55.507Z,24.12
2018-07-04T12:54:28.287Z,22.98
2018-07-04T12:57:07.992Z,16.67
2018-07-04T12:59:47.728Z,18.95
2018-07-04T13:02:28.287Z,17.30
2018-07-04T13:05:07.802Z,14.47
2018-07-04T13:07:50.604Z,11.97
2018-07-04T13:10:30.396Z,12.23
2018-07-04T13:13:10.322Z,14.38
2018-07-04T13:15:50.085Z,14.70
2018-07-04T13:18:30.092Z,25.68
2018-07-04T13:21:09.845Z,13.95
2018-07-04T13:23:49.639Z,12.45
2018-07-04T13:26:29.282Z,12.50
2018-07-04T13:29:08.926Z,13.62
2018-07-04T13:31:48.686Z,15.45
2018-07-04T13:34:29.023Z,12.63
2018-07-04T13:37:08.707Z,13.13
2018-07-04T13:39:48.814Z,11.85
2018-07-04T13:42:28.302Z,13.00
2018-07-04T13:45:08.612Z,16.02
2018-07-04T13:47:48.190Z,13.90
2018-07-04T13:50:29.023Z,14.80
2018-07-04T13:53:08.502Z,12.60
2018-07-04T13:55:42.281Z,13.93
2018-07-04T13:58:21.862Z,14.00
2018-07-04T14:01:02.066Z,13.38
2018-07-04T14:03:41.829Z,17.10
2018-07-04T14:06:22.278Z,9.85
2018-07-04T14:09:03.251Z,14.85
2018-07-04T14:11:43.195Z,12.33
2018-07-04T14:14:22.787Z,13.83
2018-07-04T14:17:02.536Z,13.38
2018-07-04T14:19:36.070Z,17.20
2018-07-04T14:22:15.728Z,13.55
2018-07-04T14:24:55.393Z,10.68
2018-07-04T14:27:35.540Z,13.50
2018-07-04T14:30:15.954Z,9.05
2018-07-04T14:32:56.142Z,13.62
2018-07-04T14:35:35.635Z,11.43
2018-07-04T14:38:15.353Z,9.95
2018-07-04T14:40:54.883Z,13.32
2018-07-04T14:43:35.548Z,14.45
2018-07-04T14:46:15.267Z,16.57
2018-07-04T14:48:55.031Z,9.45
2018-07-04T14:51:34.522Z,16.23
2018-07-04T14:54:14.417Z,10.05
2018-07-04T14:56:54.086Z,11.88
2018-07-04T14:59:34.946Z,10.13
2018-07-04T15:02:14.531Z,10.85
2018-07-04T15:04:54.630Z,9.18
2018-07-04T15:07:39.398Z,10.35
2018-07-04T15:10:19.108Z,6.53
2018-07-04T15:12:59.030Z,8.38
2018-07-04T15:15:33.017Z,10.13
2018-07-04T15:18:12.541Z,8.60
2018-07-04T15:20:53.419Z,10.88
2018-07-04T15:23:32.934Z,10.45
2018-07-04T15:26:13.316Z,8.53
2018-07-04T15:28:53.067Z,7.85
2018-07-04T15:31:32.913Z,6.15
2018-07-04T15:34:12.410Z,7.92
2018-07-04T15:36:52.411Z,14.68
2018-07-04T15:39:32.119Z,6.40
2018-07-04T15:42:12.099Z,7.45
2018-07-04T15:44:51.810Z,11.83
2018-07-04T15:47:31.707Z,7.58
2018-07-04T15:50:11.208Z,6.53
2018-07-04T15:52:51.200Z,9.53
2018-07-04T15:55:30.898Z,6.85
2018-07-04T15:58:11.044Z,8.63
2018-07-04T16:00:50.835Z,7.22
2018-07-04T16:03:30.564Z,5.58
2018-07-04T16:06:10.235Z,7.17
2018-07-04T16:08:52.320Z,9.43
2018-07-04T16:11:32.161Z,3.58
2018-07-04T16:14:11.957Z,5.72
2018-07-04T16:16:51.726Z,5.03
2018-07-04T16:19:31.920Z,5.15
2018-07-04T16:22:11.499Z,6.12
2018-07-04T16:24:51.402Z,8.30
2018-07-04T16:27:30.953Z,4.78
2018-07-04T16:30:10.907Z,6.90
2018-07-04T16:32:50.418Z,6.90
2018-07-04T16:35:30.498Z,5.58
2018-07-04T16:38:10.198Z,8.33
2018-07-04T16:40:51.319Z,8.53
2018-07-04T16:43:30.899Z,5.05
2018-07-04T16:46:11.083Z,5.40
2018-07-04T16:48:50.708Z,6.12
2018-07-04T16:51:24.678Z,4.70
2018-07-04T16:54:04.209Z,3.85
2018-07-04T16:56:45.084Z,4.10
2018-07-04T16:59:24.687Z,5.28
2018-07-04T17:02:04.427Z,5.40
2018-07-04T17:04:44.030Z,6.53
2018-07-04T17:07:26.348Z,6.08
2018-07-04T17:10:05.979Z,3.77
2018-07-04T17:12:45.813Z,8.78
2018-07-04T17:15:25.700Z,6.50
2018-07-04T17:18:05.610Z,8.98
2018-07-04T17:20:45.103Z,9.33
2018-07-04T17:23:26.119Z,9.48
2018-07-04T17:26:05.806Z,16.12
2018-07-04T17:28:45.371Z,9.23
2018-07-04T17:31:24.995Z,7.47
2018-07-04T17:34:04.723Z,7.25
2018-07-04T17:36:44.308Z,5.05
2018-07-04T17:39:25.317Z,6.67
2018-07-04T17:42:04.834Z,10.10
2018-07-04T17:44:44.502Z,6.95
2018-07-04T17:47:24.223Z,8.68
2018-07-04T17:50:04.203Z,4.28
2018-07-04T17:52:43.651Z,4.72
2018-07-04T17:55:24.086Z,6.60
2018-07-04T17:58:03.681Z,7.85
2018-07-04T18:00:37.573Z,6.67
2018-07-04T18:03:17.178Z,8.73
2018-07-04T18:05:57.243Z,6.55
2018-07-04T18:08:40.658Z,8.93
2018-07-04T18:11:20.946Z,8.28
2018-07-04T18:14:00.497Z,10.70
2018-07-04T18:16:40.435Z,9.03
2018-07-04T18:19:20.116Z,10.38
2018-07-04T18:21:59.822Z,7.80
2018-07-04T18:24:39.498Z,8.40
2018-07-04T18:27:19.717Z,8.48
2018-07-04T18:29:59.393Z,12.33
2018-07-04T18:32:39.199Z,12.37
2018-07-04T18:35:18.960Z,12.30
2018-07-04T18:37:59.328Z,9.50
2018-07-04T18:40:39.134Z,9.08
2018-07-04T18:43:19.835Z,6.47
2018-07-04T18:45:59.410Z,7.35
2018-07-04T18:48:39.098Z,5.75
2018-07-04T18:51:18.851Z,3.27
2018-07-04T18:53:58.835Z,2.58
2018-07-04T18:56:38.293Z,2.92
2018-07-04T18:59:19.237Z,3.10
2018-07-04T19:01:58.938Z,12.40
2018-07-04T19:04:38.846Z,11.38
2018-07-04T19:07:21.959Z,9.03
2018-07-04T19:10:02.477Z,4.25
2018-07-04T19:12:42.026Z,4.95
2018-07-04T19:15:22.032Z,5.50
2018-07-04T19:18:01.510Z,8.70
2018-07-04T19:20:41.395Z,4.33
2018-07-04T19:23:20.891Z,5.72
2018-07-04T19:26:01.203Z,5.72
2018-07-04T19:28:40.913Z,7.92
2018-07-04T19:31:20.651Z,4.37
2018-07-04T19:34:00.328Z,6.40
2018-07-04T19:36:40.187Z,6.12
2018-07-04T19:39:19.782Z,7.60
2018-07-04T19:42:00.511Z,5.53
2018-07-04T19:44:40.197Z,4.55
2018-07-04T19:47:19.987Z,6.33
2018-07-04T19:49:59.535Z,6.78
2018-07-04T19:52:39.480Z,6.10
2018-07-04T19:55:19.170Z,6.30
2018-07-04T19:57:59.474Z,5.95
2018-07-04T20:00:42.881Z,7.00
2018-07-04T20:03:23.503Z,4.85
2018-07-04T20:06:03.148Z,3.98
2018-07-04T20:08:49.928Z,5.00
2018-07-04T20:11:29.731Z,7.22
2018-07-04T20:14:09.401Z,7.87
2018-07-04T20:16:48.967Z,6.30
2018-07-04T20:19:28.745Z,3.98
2018-07-04T20:22:08.425Z,3.87
2018-07-04T20:24:48.663Z,3.72
2018-07-04T20:27:28.519Z,3.95
2018-07-04T20:30:08.302Z,4.67
2018-07-04T20:32:48.010Z,4.22
2018-07-04T20:35:28.540Z,10.00
2018-07-04T20:38:08.222Z,5.22
2018-07-04T20:40:48.728Z,7.53
2018-07-04T20:43:28.518Z,4.80
2018-07-04T20:46:08.126Z,4.03
2018-07-04T20:48:47.830Z,4.10
2018-07-04T20:51:27.714Z,5.37
2018-07-04T20:54:07.357Z,5.80
2018-07-04T20:56:48.559Z,4.55
2018-07-04T20:59:28.039Z,7.17
2018-07-04T21:02:07.808Z,3.77
2018-07-04T21:04:47.511Z,5.03
2018-07-04T21:07:30.396Z,6.47
2018-07-04T21:10:10.669Z,2.92
2018-07-04T21:12:50.601Z,5.90
2018-07-04T21:15:30.095Z,4.42
2018-07-04T21:18:09.967Z,2.87
2018-07-04T21:20:49.669Z,2.92
2018-07-04T21:23:30.402Z,7.35
2018-07-04T21:26:10.030Z,2.45
2018-07-04T21:28:49.678Z,3.98
2018-07-04T21:31:29.299Z,3.50
2018-07-04T21:34:09.036Z,2.80
2018-07-04T21:36:48.810Z,4.53
2018-07-04T21:39:28.676Z,6.80
2018-07-04T21:42:08.187Z,1.65
2018-07-04T21:44:47.979Z,4.78
2018-07-04T21:47:27.638Z,2.55
2018-07-04T21:50:07.296Z,3.00
2018-07-04T21:52:47.070Z,1.70
2018-07-04T21:55:27.435Z,3.52
2018-07-04T21:58:07.146Z,2.65
2018-07-04T22:00:46.970Z,3.22
2018-07-04T22:03:26.743Z,2.87
2018-07-04T22:06:06.623Z,3.40
2018-07-04T22:08:47.886Z,3.45
2018-07-04T22:11:28.066Z,3.08
2018-07-04T22:14:07.554Z,3.70
2018-07-04T22:16:47.349Z,2.58
2018-07-04T22:19:27.150Z,1.50
2018-07-04T22:22:07.158Z,3.30
2018-07-04T22:24:46.630Z,1.82
2018-07-04T22:27:26.534Z,2.05
2018-07-04T22:30:06.131Z,2.55
2018-07-04T22:32:46.111Z,1.90
2018-07-04T22:35:25.690Z,2.67
2018-07-04T22:38:05.543Z,2.60
2018-07-04T22:40:45.219Z,2.77
2018-07-04T22:43:26.045Z,2.62
2018-07-04T22:46:05.542Z,2.47
2018-07-04T22:48:45.735Z,1.98
2018-07-04T22:51:25.428Z,4.10
2018-07-04T22:54:05.242Z,2.77
2018-07-04T22:56:44.899Z,4.62
2018-07-04T22:59:18.951Z,1.80
2018-07-04T23:01:58.503Z,2.72
2018-07-04T23:04:38.365Z,3.17
2018-07-04T23:07:19.934Z,1.82
2018-07-04T23:09:59.949Z,2.60
2018-07-04T23:12:39.570Z,2.75
2018-07-04T23:15:19.260Z,2.35
2018-07-04T23:17:59.207Z,2.67
2018-07-04T23:20:38.720Z,3.05
2018-07-04T23:23:18.162Z,2.08
2018-07-04T23:25:58.479Z,1.55
2018-07-04T23:28:38.074Z,2.80
2018-07-04T23:31:17.979Z,1.57
2018-07-04T23:33:57.518Z,2.00
2018-07-04T23:36:37.369Z,1.40
2018-07-04T23:39:17.050Z,1.82
2018-07-04T23:41:57.191Z,1.42
2018-07-04T23:44:36.795Z,1.25
2018-07-04T23:47:16.531Z,1.95
2018-07-04T23:49:56.052Z,3.08
2018-07-04T23:52:36.142Z,1.50
2018-07-04T23:55:15.724Z,1.98
2018-07-04T23:57:56.049Z,1.70
